• Join FlightAware (Why Join?)
  • Login
  • US Flag GB Flag 
03:38 EDT


 

Airport Tracker/Info


-or-


 

Live Flight TrackerFlight Track Log ✈ GTX653 ✈ 07-Mar-2014 ✈ KADS - KEDC

Flight Track Log - Related Links

Times and Time Zones

All times are in EST time to prevent confusion due to time zone crossing. See the GTX653 flight status page for this flight to view local times or setup timezone preferences in your user account.

Time Position Orientation Groundspeed Altitude Reporting Facility
EST Latitude Longitude Course Direction KTS MPH feet Rate Location/Type
23:35 32.9333 -96.7833 90° East 139 160 2,000  Level Dallas / Fort Worth TRACON
23:36 32.9333 -96.7667 90° East 147 169 2,100 360 Climbing Dallas / Fort Worth TRACON
23:37 32.9000 -96.7500 157° South 96 110 2,600 540 Climbing Dallas / Fort Worth TRACON
23:38 32.8833 -96.7667 220° Southwest 107 123 3,200 600 Climbing Dallas / Fort Worth TRACON
23:39 32.8500 -96.7667 180° South 103 119 3,900 600 Climbing Dallas / Fort Worth TRACON
23:40 32.8167 -96.7833 203° Southwest 110 127 4,500 600 Climbing Dallas / Fort Worth TRACON
23:41 32.7833 -96.8000 203° Southwest 120 138 5,100 600 Climbing Dallas / Fort Worth TRACON
23:42 32.7500 -96.8000 180° South 125 144 5,700 420 Climbing Dallas / Fort Worth TRACON
23:43 32.7167 -96.8167 203° Southwest 127 146 6,000 120 Climbing Dallas / Fort Worth TRACON
23:43 32.6833 -96.8333 203° Southwest 147 169 6,000  Level Dallas / Fort Worth TRACON
23:45 32.6333 -96.8500 196° South 151 174 6,000  Level Dallas / Fort Worth TRACON
23:46 32.5833 -96.8500 180° South 153 176 6,000  Level Dallas / Fort Worth TRACON
23:47 32.5500 -96.8667 203° Southwest 156 180 6,000  Level Dallas / Fort Worth TRACON
23:48 32.5167 -96.8833 203° Southwest 154 177 6,000  Level Dallas / Fort Worth TRACON
23:48 32.4833 -96.9000 203° Southwest 155 178 6,000  Level Dallas / Fort Worth TRACON
23:49 32.4606 -96.9058 192° South 154 177 6,000  Level Fort Worth Center
23:50 32.4153 -96.9206 195° South 156 180 6,000  Level Fort Worth Center
23:51 32.3742 -96.9364 198° South 156 180 6,000  Level Fort Worth Center
23:52 32.3328 -96.9500 196° South 155 178 6,000  Level Fort Worth Center
23:53 32.2906 -96.9606 192° South 155 178 6,000  Level Fort Worth Center
23:54 32.2481 -96.9764 197° South 155 178 6,000  Level Fort Worth Center
23:55 32.2069 -96.9936 200° South 155 178 6,000 60 Level Fort Worth Center
23:56 32.1650 -97.0083 197° South 155 178 6,200  Climbing Fort Worth Center
23:57 32.1247 -97.0236 198° South 155 178 6,100 -60 Descending Fort Worth Center
23:58 32.0836 -97.0406 199° South 155 178 6,100  Level Fort Worth Center
23:59 32.0417 -97.0544 196° South 155 178 6,100  Level Fort Worth Center
00:00 31.9983 -97.0614 188° South 155 178 6,100  Level Fort Worth Center
00:01 31.9594 -97.0761 198° South 155 178 6,100  Level Fort Worth Center
00:02 31.9156 -97.0872 192° South 156 180 6,100  Level Fort Worth Center
00:03 31.8717 -97.1000 194° South 157 181 6,100  Level Fort Worth Center
00:04 31.8222 -97.1153 195° South 158 182 6,100  Level Fort Worth Center
00:05 31.7833 -97.1250 192° South 161 185 6,100  Level Fort Worth Center
00:06 31.7392 -97.1397 196° South 161 185 6,100  Level Fort Worth Center
00:07 31.6947 -97.1539 195° South 161 185 6,100  Level Fort Worth Center
00:08 31.6431 -97.1697 195° South 161 185 6,100  Level Fort Worth Center
00:09 31.5981 -97.1828 194° South 162 186 6,100  Level Fort Worth Center
00:10 31.5542 -97.1989 197° South 162 186 6,100  Level Fort Worth Center
00:11 31.5094 -97.2128 195° South 162 186 6,100  Level Fort Worth Center
00:12 31.4650 -97.2244 193° South 163 188 6,100  Level Fort Worth Center
00:13 31.4211 -97.2406 197° South 163 188 6,100  Level Fort Worth Center
00:14 31.3778 -97.2536 194° South 163 188 6,100  Level Fort Worth Center
00:14 31.3764 -97.2550 220° Southwest 163 188 6,100  Level Fort Worth Center
00:14 31.3739 -97.2567 210° Southwest 163 188 6,100  Level Fort Worth Center
00:15 31.3314 -97.2686 193° South 163 188 6,100  Level Fort Worth Center
00:15 31.3269 -97.2697 192° South 165 190 6,100  Level Fort Worth Center
00:16 31.2867 -97.2828 195° South 163 188 6,100  Level Fort Worth Center
00:16 31.2844 -97.2842 208° Southwest 166 191 6,100  Level Fort Worth Center
00:17 31.2375 -97.2972 193° South 165 190 6,100  Level Fort Worth Center
00:18 31.1969 -97.3089 194° South 163 188 6,100  Level Fort Worth Center
00:18 31.1886 -97.3103 188° South 163 188 6,100  Level Fort Worth Center
00:19 31.1525 -97.3217 195° South 163 188 6,100  Level Fort Worth Center
00:19 31.1461 -97.3250 204° Southwest 162 186 6,100  Level Fort Worth Center
00:20 31.1094 -97.3369 196° South 163 188 6,100  Level Fort Worth Center
00:21 31.0994 -97.3400 195° South 163 188 6,100  Level Fort Worth Center
00:21 31.0650 -97.3511 195° South 163 188 6,100  Level Fort Worth Center
00:22 31.0217 -97.3664 197° South 163 188 6,100  Level Fort Worth Center
00:23 30.9781 -97.3814 196° South 163 188 6,100  Level Fort Worth Center
00:24 30.9342 -97.3961 196° South 163 188 6,100  Level Fort Worth Center
00:25 30.8917 -97.4122 198° South 163 188 6,100 -60 Level Fort Worth Center
00:26 30.8489 -97.4281 198° South 163 188 6,000  Descending Fort Worth Center
00:27 30.8044 -97.4406 194° South 163 188 6,100  Climbing Fort Worth Center
00:28 30.7608 -97.4528 194° South 162 186 6,000 -480 Descending Fort Worth Center
00:29 30.7136 -97.4672 195° South 165 190 5,200 -840 Descending Fort Worth Center
00:30 30.6653 -97.4806 193° South 174 200 4,400 -840 Descending Fort Worth Center
00:31 30.6189 -97.4936 194° South 174 200 3,600 -720 Descending Fort Worth Center
00:32 30.5772 -97.5075 196° South 166 191 3,000 -600 Descending Fort Worth Center